createdAt,value
2023-12-10T00:01:03.249Z,-3.86
2023-12-10T00:03:35.704Z,-3.84
2023-12-10T00:06:13.761Z,-3.77
2023-12-10T00:08:46.931Z,-3.81
2023-12-10T00:11:19.136Z,-3.96
2023-12-10T00:13:51.259Z,-3.96
2023-12-10T00:16:23.386Z,-3.93
2023-12-10T00:18:55.570Z,-3.82
2023-12-10T00:21:28.338Z,-3.77
2023-12-10T00:24:00.658Z,-3.86
2023-12-10T00:26:33.198Z,-3.79
2023-12-10T00:29:05.313Z,-3.72
2023-12-10T00:31:38.559Z,-3.67
2023-12-10T00:34:10.703Z,-3.76
2023-12-10T00:36:42.969Z,-3.77
2023-12-10T00:39:14.908Z,-3.75
2023-12-10T00:41:47.551Z,-3.72
2023-12-10T00:44:19.649Z,-3.66
2023-12-10T00:46:52.184Z,-3.56
2023-12-10T00:49:24.321Z,-3.59
2023-12-10T00:51:56.855Z,-3.67
2023-12-10T00:54:29.367Z,-3.82
2023-12-10T00:57:01.856Z,-3.90
2023-12-10T00:59:34.028Z,-4.03
2023-12-10T01:02:06.971Z,-4.17
2023-12-10T01:04:39.397Z,-4.27
2023-12-10T01:07:13.165Z,-4.21
2023-12-10T01:09:45.246Z,-4.15
2023-12-10T01:12:18.192Z,-4.10
2023-12-10T01:14:50.708Z,-4.08
2023-12-10T01:17:22.780Z,-4.05
2023-12-10T01:19:54.977Z,-4.12
2023-12-10T01:22:27.555Z,-4.23
2023-12-10T01:24:59.864Z,-4.14
2023-12-10T01:27:32.454Z,-4.16
2023-12-10T01:30:05.034Z,-4.20
2023-12-10T01:32:37.245Z,-4.29
2023-12-10T01:35:11.111Z,-4.28
2023-12-10T01:37:43.226Z,-4.31
2023-12-10T01:40:16.739Z,-4.31
2023-12-10T01:42:47.059Z,-4.38
2023-12-10T01:45:21.675Z,-4.43
2023-12-10T01:47:55.436Z,-4.46
2023-12-10T01:50:26.298Z,-4.53
2023-12-10T01:52:59.616Z,-4.50
2023-12-10T01:55:32.048Z,-4.50
2023-12-10T01:58:06.082Z,-4.51
2023-12-10T02:00:39.947Z,-4.44
2023-12-10T02:03:12.660Z,-4.48
2023-12-10T02:05:44.723Z,-4.49
2023-12-10T02:08:16.835Z,-4.47
2023-12-10T02:10:49.012Z,-4.54
2023-12-10T02:13:21.322Z,-4.54
2023-12-10T02:15:53.589Z,-4.56
2023-12-10T02:18:25.925Z,-4.51
2023-12-10T02:20:59.307Z,-4.46
2023-12-10T02:23:40.644Z,-4.39
2023-12-10T02:26:12.868Z,-4.35
2023-12-10T02:28:45.438Z,-4.32
2023-12-10T02:31:17.390Z,-4.21
2023-12-10T02:33:49.641Z,-4.21
2023-12-10T02:36:21.840Z,-4.21
2023-12-10T02:38:54.160Z,-4.05
2023-12-10T02:41:26.200Z,-4.08
2023-12-10T02:43:58.238Z,-4.06
2023-12-10T02:46:30.148Z,-3.97
2023-12-10T02:49:02.795Z,-4.04
2023-12-10T02:51:34.822Z,-4.02
2023-12-10T02:54:07.402Z,-4.01
2023-12-10T02:56:39.468Z,-3.97
2023-12-10T02:59:12.422Z,-3.95
2023-12-10T03:01:45.036Z,-3.95
2023-12-10T03:04:17.264Z,-3.85
2023-12-10T03:06:49.449Z,-3.84
2023-12-10T03:09:22.188Z,-3.81
2023-12-10T03:11:54.914Z,-3.81
2023-12-10T03:14:27.224Z,-3.78
2023-12-10T03:16:59.678Z,-3.75
2023-12-10T03:19:31.932Z,-3.70
2023-12-10T03:22:04.198Z,-3.72
2023-12-10T03:24:36.669Z,-3.76
2023-12-10T03:27:09.244Z,-3.77
2023-12-10T03:29:43.074Z,-3.78
2023-12-10T03:32:13.159Z,-3.82
2023-12-10T03:34:46.906Z,-3.95
2023-12-10T03:37:17.213Z,-3.90
2023-12-10T03:39:49.402Z,-3.93
2023-12-10T03:42:21.467Z,-3.97
2023-12-10T03:44:53.494Z,-3.98
2023-12-10T03:47:25.689Z,-3.90
2023-12-10T03:49:58.410Z,-3.79
2023-12-10T03:52:30.702Z,-3.71
2023-12-10T03:55:03.016Z,-3.68
2023-12-10T03:57:35.277Z,-3.65
2023-12-10T04:00:09.071Z,-3.74
2023-12-10T04:02:47.106Z,-3.88
2023-12-10T04:05:19.403Z,-3.97
2023-12-10T04:07:52.485Z,-3.95
2023-12-10T04:10:24.633Z,-3.75
2023-12-10T04:12:57.153Z,-3.69
2023-12-10T04:15:29.621Z,-3.68
2023-12-10T04:18:02.300Z,-3.74
2023-12-10T04:20:34.289Z,-3.77
2023-12-10T04:23:06.450Z,-3.83
2023-12-10T04:25:38.697Z,-3.83
2023-12-10T04:28:10.876Z,-3.95
2023-12-10T04:30:43.214Z,-4.00
2023-12-10T04:33:17.033Z,-4.04
2023-12-10T04:35:49.341Z,-4.07
2023-12-10T04:38:21.612Z,-4.15
2023-12-10T04:40:54.000Z,-4.29
2023-12-10T04:43:26.566Z,-4.36
2023-12-10T04:45:59.625Z,-4.35
2023-12-10T04:48:31.919Z,-4.23
2023-12-10T04:51:04.274Z,-4.31
2023-12-10T04:53:36.332Z,-4.31
2023-12-10T04:56:10.249Z,-4.25
2023-12-10T04:58:42.678Z,-4.18
2023-12-10T05:01:15.142Z,-4.16
2023-12-10T05:03:47.505Z,-4.14
2023-12-10T05:06:19.767Z,-4.06
2023-12-10T05:08:52.214Z,-4.02
2023-12-10T05:11:24.446Z,-3.99
2023-12-10T05:13:56.576Z,-3.99
2023-12-10T05:16:29.075Z,-3.91
2023-12-10T05:19:01.226Z,-3.86
2023-12-10T05:21:34.982Z,-3.95
2023-12-10T05:24:05.515Z,-3.87
2023-12-10T05:26:37.605Z,-3.90
2023-12-10T05:29:09.853Z,-3.87
2023-12-10T05:31:42.007Z,-3.77
2023-12-10T05:34:15.698Z,-3.74
2023-12-10T05:36:47.845Z,-3.72
2023-12-10T05:39:19.949Z,-3.70
2023-12-10T05:41:52.381Z,-3.62
2023-12-10T05:44:24.373Z,-3.61
2023-12-10T05:46:56.618Z,-3.55
2023-12-10T05:49:29.305Z,-3.54
2023-12-10T05:52:01.656Z,-3.53
2023-12-10T05:54:33.703Z,-3.44
2023-12-10T05:57:06.030Z,-3.28
2023-12-10T05:59:39.358Z,-3.23
2023-12-10T06:02:11.423Z,-3.25
2023-12-10T06:04:44.170Z,-3.19
2023-12-10T06:07:16.469Z,-3.15
2023-12-10T06:09:48.609Z,-3.12
2023-12-10T06:12:20.756Z,-3.22
2023-12-10T06:14:52.864Z,-3.26
2023-12-10T06:17:25.191Z,-3.26
2023-12-10T06:19:57.333Z,-3.21
2023-12-10T06:22:29.721Z,-3.22
2023-12-10T06:25:02.325Z,-3.21
2023-12-10T06:27:34.558Z,-3.14
2023-12-10T06:30:07.116Z,-3.07
2023-12-10T06:32:39.678Z,-3.04
2023-12-10T06:35:13.230Z,-3.05
2023-12-10T06:37:45.593Z,-3.02
2023-12-10T06:40:18.000Z,-3.00
2023-12-10T06:42:50.172Z,-2.94
2023-12-10T06:45:22.549Z,-2.93
2023-12-10T06:47:55.229Z,-2.92
2023-12-10T06:50:27.958Z,-2.89
2023-12-10T06:53:00.094Z,-2.86
2023-12-10T06:55:32.244Z,-2.79
2023-12-10T06:58:04.361Z,-2.72
2023-12-10T07:00:36.890Z,-2.67
2023-12-10T07:03:09.205Z,-2.62
2023-12-10T07:05:41.407Z,-2.60
2023-12-10T07:08:14.605Z,-2.58
2023-12-10T07:10:46.938Z,-2.56
2023-12-10T07:13:19.053Z,-2.54
2023-12-10T07:15:51.256Z,-2.51
2023-12-10T07:18:24.225Z,-2.49
2023-12-10T07:20:57.054Z,-2.44
2023-12-10T07:23:29.079Z,-2.44
2023-12-10T07:26:02.019Z,-2.42
2023-12-10T07:28:34.920Z,-2.42
2023-12-10T07:31:07.832Z,-2.40
2023-12-10T07:33:40.501Z,-2.35
2023-12-10T07:36:14.649Z,-2.35
2023-12-10T07:38:48.251Z,-2.29
2023-12-10T07:41:20.452Z,-2.24
2023-12-10T07:43:52.593Z,-2.22
2023-12-10T07:46:25.833Z,-2.20
2023-12-10T07:48:58.205Z,-2.18
2023-12-10T07:51:30.493Z,-2.12
2023-12-10T07:54:02.679Z,-2.13
2023-12-10T07:56:34.712Z,-2.01
2023-12-10T07:59:06.883Z,-1.97
2023-12-10T08:01:43.279Z,-1.92
2023-12-10T08:04:16.469Z,-1.86
2023-12-10T08:06:49.196Z,-1.76
2023-12-10T08:09:23.318Z,-1.68
2023-12-10T08:11:56.533Z,-1.61
2023-12-10T08:14:30.024Z,-1.53
2023-12-10T08:17:02.909Z,-1.47
2023-12-10T08:19:36.823Z,-1.38
2023-12-10T08:22:09.217Z,-1.27
2023-12-10T08:24:41.325Z,-1.18
2023-12-10T08:27:14.347Z,-1.08
2023-12-10T08:29:46.672Z,-1.05
2023-12-10T08:32:19.108Z,-1.02
2023-12-10T08:34:51.439Z,-0.95
2023-12-10T08:37:23.869Z,-0.89
2023-12-10T08:39:56.029Z,-0.83
2023-12-10T08:42:36.842Z,-0.74
2023-12-10T08:45:12.773Z,-0.68
2023-12-10T08:47:45.417Z,-0.65
2023-12-10T08:50:17.801Z,-0.54
2023-12-10T08:52:50.169Z,-0.47
2023-12-10T08:55:25.351Z,-0.41
2023-12-10T08:57:59.276Z,-0.40
2023-12-10T09:00:31.883Z,-0.38
2023-12-10T09:03:04.234Z,-0.31
2023-12-10T09:05:36.407Z,-0.25
2023-12-10T09:08:09.534Z,-0.14
2023-12-10T09:10:41.919Z,-0.06
2023-12-10T09:13:16.039Z,-0.09
2023-12-10T09:15:48.252Z,-0.14
2023-12-10T09:18:25.803Z,-0.15
2023-12-10T09:20:59.821Z,-0.12
2023-12-10T09:23:38.054Z,-0.06
2023-12-10T09:26:11.576Z,0.00
2023-12-10T09:28:43.652Z,-0.02
2023-12-10T09:31:15.844Z,0.04
2023-12-10T09:33:48.173Z,0.08
2023-12-10T09:36:22.155Z,0.04
2023-12-10T09:38:52.361Z,0.07
2023-12-10T09:41:24.868Z,0.01
2023-12-10T09:43:56.847Z,0.06
2023-12-10T09:46:34.579Z,0.13
2023-12-10T09:49:09.135Z,0.15
2023-12-10T09:51:42.411Z,0.09
2023-12-10T09:54:15.454Z,0.09
2023-12-10T09:56:48.469Z,0.11
2023-12-10T09:59:20.664Z,0.20
2023-12-10T10:01:55.620Z,0.20
2023-12-10T10:04:27.931Z,0.26
2023-12-10T10:07:00.255Z,0.31
2023-12-10T10:09:37.482Z,0.34
2023-12-10T10:12:13.698Z,0.40
2023-12-10T10:14:58.705Z,0.48
2023-12-10T10:17:33.198Z,0.50
2023-12-10T10:20:06.537Z,0.49
2023-12-10T10:22:38.963Z,0.55
2023-12-10T10:25:12.135Z,0.52
2023-12-10T10:27:44.433Z,0.54
2023-12-10T10:30:17.134Z,0.58
2023-12-10T10:32:51.427Z,0.58
2023-12-10T10:35:23.935Z,0.65
2023-12-10T10:37:58.027Z,0.57
2023-12-10T10:40:30.311Z,0.56
2023-12-10T10:43:02.358Z,0.50
2023-12-10T10:45:35.706Z,0.63
2023-12-10T10:48:08.366Z,0.77
2023-12-10T10:50:42.301Z,0.84
2023-12-10T10:53:15.531Z,0.79
2023-12-10T10:55:49.890Z,0.88
2023-12-10T10:58:29.770Z,0.90
2023-12-10T11:01:03.548Z,0.86
2023-12-10T11:03:35.958Z,0.93
2023-12-10T11:06:12.928Z,0.94
2023-12-10T11:09:00.767Z,0.99
2023-12-10T11:11:39.873Z,0.80
2023-12-10T11:14:22.984Z,0.83
2023-12-10T11:17:03.233Z,0.81
2023-12-10T11:19:35.659Z,0.82
2023-12-10T11:22:09.458Z,0.85
2023-12-10T11:24:39.881Z,0.79
2023-12-10T11:27:15.702Z,0.67
2023-12-10T11:29:47.899Z,0.80
2023-12-10T11:32:20.302Z,0.81
2023-12-10T11:34:52.413Z,0.66
2023-12-10T11:37:24.892Z,0.69
2023-12-10T11:39:57.172Z,0.80
2023-12-10T11:42:31.553Z,0.73
2023-12-10T11:45:03.991Z,0.69
2023-12-10T11:47:36.488Z,0.65
2023-12-10T11:50:11.335Z,0.64
2023-12-10T11:52:44.212Z,0.61
2023-12-10T11:55:16.713Z,0.63
2023-12-10T11:57:49.588Z,0.52
2023-12-10T12:00:22.211Z,0.52
2023-12-10T12:02:56.035Z,0.54
2023-12-10T12:05:28.256Z,0.46
2023-12-10T12:08:02.773Z,0.42
2023-12-10T12:10:41.600Z,0.60
2023-12-10T12:13:14.053Z,0.49
2023-12-10T12:15:50.120Z,0.47
2023-12-10T12:18:25.627Z,0.52
2023-12-10T12:20:58.173Z,0.50
2023-12-10T12:23:30.317Z,0.48
2023-12-10T12:26:02.764Z,0.53
2023-12-10T12:28:34.849Z,0.62
2023-12-10T12:31:07.777Z,0.60
2023-12-10T12:33:40.143Z,0.57
2023-12-10T12:36:13.428Z,0.58
2023-12-10T12:38:47.600Z,0.60
2023-12-10T12:41:19.947Z,0.63
2023-12-10T12:43:55.807Z,0.70
2023-12-10T12:46:28.803Z,0.65
2023-12-10T12:49:00.967Z,0.66
2023-12-10T12:51:34.432Z,0.66
2023-12-10T12:54:12.489Z,0.63
2023-12-10T12:56:46.228Z,0.64
2023-12-10T12:59:19.079Z,0.62
2023-12-10T13:01:51.720Z,0.63
2023-12-10T13:04:24.509Z,0.66
2023-12-10T13:06:57.305Z,0.68
2023-12-10T13:09:31.767Z,0.74
2023-12-10T13:12:04.637Z,0.71
2023-12-10T13:14:36.720Z,0.69
2023-12-10T13:17:09.105Z,0.72
2023-12-10T13:19:42.270Z,0.79
2023-12-10T13:22:15.471Z,0.88
2023-12-10T13:24:47.696Z,0.82
2023-12-10T13:27:22.746Z,0.80
2023-12-10T13:29:57.921Z,0.82
2023-12-10T13:32:30.614Z,0.79
2023-12-10T13:35:02.800Z,0.82
2023-12-10T13:37:34.948Z,0.83
2023-12-10T13:40:11.591Z,0.82
2023-12-10T13:42:44.148Z,0.85
2023-12-10T13:45:16.588Z,0.81
2023-12-10T13:47:48.708Z,0.79
2023-12-10T13:50:21.720Z,0.83
2023-12-10T13:52:53.952Z,0.83
2023-12-10T13:55:27.635Z,0.82
2023-12-10T13:57:59.303Z,0.81
2023-12-10T14:00:31.723Z,0.78
2023-12-10T14:03:04.142Z,0.84
2023-12-10T14:05:37.167Z,0.85
2023-12-10T14:08:09.668Z,0.84
2023-12-10T14:10:42.073Z,0.80
2023-12-10T14:13:14.292Z,0.78
2023-12-10T14:15:46.746Z,0.87
2023-12-10T14:18:18.972Z,0.83
2023-12-10T14:20:51.580Z,0.88
2023-12-10T14:23:23.749Z,0.81
2023-12-10T14:25:57.300Z,0.79
2023-12-10T14:28:33.401Z,0.75
2023-12-10T14:31:09.695Z,0.71
2023-12-10T14:33:41.060Z,0.72
2023-12-10T14:36:13.726Z,0.65
2023-12-10T14:38:45.910Z,0.66
2023-12-10T14:41:20.347Z,0.64
2023-12-10T14:43:52.810Z,0.65
2023-12-10T14:46:28.046Z,0.67
2023-12-10T14:49:00.284Z,0.69
2023-12-10T14:51:32.595Z,0.69
2023-12-10T14:54:04.836Z,0.73
2023-12-10T14:56:37.557Z,0.74
2023-12-10T14:59:14.257Z,0.71
2023-12-10T15:01:58.332Z,0.71
2023-12-10T15:04:34.178Z,0.70
2023-12-10T15:07:06.455Z,0.70
2023-12-10T15:09:40.096Z,0.75
2023-12-10T15:12:12.452Z,0.74
2023-12-10T15:14:45.452Z,0.71
2023-12-10T15:17:19.196Z,0.72
2023-12-10T15:19:49.803Z,0.70
2023-12-10T15:22:22.457Z,0.65
2023-12-10T15:24:55.297Z,0.65
2023-12-10T15:27:27.919Z,0.66
2023-12-10T15:30:00.712Z,0.67
2023-12-10T15:32:32.883Z,0.68
2023-12-10T15:35:06.115Z,0.76
2023-12-10T15:37:39.675Z,0.73
2023-12-10T15:40:15.251Z,0.73
2023-12-10T15:42:50.025Z,0.71
2023-12-10T15:45:25.446Z,0.74
2023-12-10T15:47:58.798Z,0.71
2023-12-10T15:50:36.784Z,0.72
2023-12-10T15:53:10.034Z,0.76
2023-12-10T15:55:42.767Z,0.76
2023-12-10T15:58:15.196Z,0.78
2023-12-10T16:00:54.722Z,0.80
2023-12-10T16:03:27.621Z,0.81
2023-12-10T16:06:00.346Z,0.83
2023-12-10T16:08:32.999Z,0.85
2023-12-10T16:11:08.991Z,0.85
2023-12-10T16:13:42.504Z,0.86
2023-12-10T16:16:22.266Z,0.88
2023-12-10T16:18:56.415Z,0.88
2023-12-10T16:21:32.870Z,0.90
2023-12-10T16:24:05.981Z,0.91
2023-12-10T16:26:42.733Z,0.91
2023-12-10T16:29:18.682Z,0.89
2023-12-10T16:31:52.471Z,0.89
2023-12-10T16:34:26.798Z,0.90
2023-12-10T16:37:02.997Z,0.91
2023-12-10T16:39:39.271Z,0.90
2023-12-10T16:42:13.939Z,0.88
2023-12-10T16:44:49.108Z,0.90
2023-12-10T16:47:23.530Z,0.91
2023-12-10T16:49:56.635Z,0.90
2023-12-10T16:52:29.858Z,0.91
2023-12-10T16:55:04.904Z,0.92
2023-12-10T16:57:38.709Z,0.92
2023-12-10T17:00:12.051Z,0.93
2023-12-10T17:02:47.455Z,0.90
2023-12-10T17:05:22.484Z,0.92
2023-12-10T17:07:58.311Z,0.94
2023-12-10T17:10:32.302Z,0.93
2023-12-10T17:13:07.305Z,0.95
2023-12-10T17:15:41.963Z,0.97
2023-12-10T17:18:16.654Z,0.95
2023-12-10T17:20:50.493Z,0.95
2023-12-10T17:23:24.925Z,0.92
2023-12-10T17:25:58.328Z,0.92
2023-12-10T17:28:32.141Z,0.90
2023-12-10T17:31:04.308Z,0.90
2023-12-10T17:33:39.000Z,0.82
2023-12-10T17:36:21.326Z,0.85
2023-12-10T17:38:56.890Z,0.85
2023-12-10T17:41:30.901Z,0.85
2023-12-10T17:44:03.098Z,0.86
2023-12-10T17:46:36.784Z,0.82
2023-12-10T17:49:11.546Z,0.86
2023-12-10T17:51:46.770Z,0.90
2023-12-10T17:54:20.970Z,0.92
2023-12-10T17:56:55.784Z,0.94
2023-12-10T17:59:31.720Z,0.94
2023-12-10T18:02:04.566Z,0.96
2023-12-10T18:04:38.772Z,0.97
2023-12-10T18:07:11.220Z,0.99
2023-12-10T18:09:44.179Z,1.04
2023-12-10T18:12:16.607Z,1.07
2023-12-10T18:14:50.457Z,1.06
2023-12-10T18:17:22.541Z,1.09
2023-12-10T18:19:55.194Z,1.12
2023-12-10T18:22:27.644Z,1.12
2023-12-10T18:25:00.207Z,1.13
2023-12-10T18:27:32.754Z,1.14
2023-12-10T18:30:05.554Z,1.18
2023-12-10T18:32:38.380Z,1.31
2023-12-10T18:35:11.861Z,1.36
2023-12-10T18:37:43.933Z,1.36
2023-12-10T18:40:18.234Z,1.40
2023-12-10T18:42:50.310Z,1.47
2023-12-10T18:45:25.929Z,1.42
2023-12-10T18:47:58.758Z,1.41
2023-12-10T18:50:32.065Z,1.46
2023-12-10T18:53:05.452Z,1.44
2023-12-10T18:55:38.671Z,1.42
2023-12-10T18:58:10.580Z,1.48
2023-12-10T19:00:45.580Z,1.43
2023-12-10T19:03:18.102Z,1.42
2023-12-10T19:05:50.865Z,1.34
2023-12-10T19:08:22.852Z,1.36
2023-12-10T19:10:55.713Z,1.36
2023-12-10T19:13:30.155Z,1.39
2023-12-10T19:16:02.669Z,1.42
2023-12-10T19:18:36.557Z,1.46
2023-12-10T19:21:18.612Z,1.49
2023-12-10T19:23:51.872Z,1.49
2023-12-10T19:26:25.144Z,1.44
2023-12-10T19:28:57.181Z,1.41
2023-12-10T19:31:30.942Z,1.44
2023-12-10T19:34:01.224Z,1.44
2023-12-10T19:36:34.164Z,1.40
2023-12-10T19:39:07.179Z,1.44
2023-12-10T19:41:43.579Z,1.47
2023-12-10T19:44:20.383Z,1.46
2023-12-10T19:46:55.950Z,1.50
2023-12-10T19:49:27.987Z,1.51
2023-12-10T19:52:00.383Z,1.52
2023-12-10T19:54:32.780Z,1.52
2023-12-10T19:57:05.856Z,1.52
2023-12-10T19:59:40.341Z,1.53
2023-12-10T20:02:12.956Z,1.54
2023-12-10T20:04:45.950Z,1.58
2023-12-10T20:07:18.771Z,1.59
2023-12-10T20:09:50.935Z,1.59
2023-12-10T20:12:23.184Z,1.59
2023-12-10T20:14:55.246Z,1.62
2023-12-10T20:17:29.385Z,1.58
2023-12-10T20:20:01.575Z,1.57
2023-12-10T20:22:33.913Z,1.56
2023-12-10T20:25:19.444Z,1.57
2023-12-10T20:28:03.505Z,1.63
2023-12-10T20:30:43.146Z,1.68
2023-12-10T20:33:18.332Z,1.68
2023-12-10T20:35:58.907Z,1.66
2023-12-10T20:38:32.729Z,1.64
2023-12-10T20:41:05.831Z,1.64
2023-12-10T20:44:09.186Z,1.62
2023-12-10T20:46:52.509Z,1.58
2023-12-10T20:49:29.681Z,1.56
2023-12-10T20:52:14.783Z,1.59
2023-12-10T20:54:52.302Z,1.60
2023-12-10T20:57:25.521Z,1.61
2023-12-10T21:00:05.276Z,1.63
2023-12-10T21:02:46.065Z,1.60
2023-12-10T21:05:24.772Z,1.57
2023-12-10T21:07:57.011Z,1.58
2023-12-10T21:10:29.436Z,1.65
2023-12-10T21:13:02.205Z,1.67
2023-12-10T21:15:34.591Z,1.66
2023-12-10T21:18:07.074Z,1.61
2023-12-10T21:20:39.341Z,1.58
2023-12-10T21:23:11.714Z,1.63
2023-12-10T21:25:43.876Z,1.66
2023-12-10T21:28:17.929Z,1.68
2023-12-10T21:30:50.098Z,1.64
2023-12-10T21:33:22.431Z,1.65
2023-12-10T21:35:54.491Z,1.75
2023-12-10T21:38:26.853Z,1.84
2023-12-10T21:40:59.107Z,1.84
2023-12-10T21:43:31.485Z,1.82
2023-12-10T21:46:03.625Z,1.84
2023-12-10T21:48:36.261Z,1.87
2023-12-10T21:51:09.929Z,1.93
2023-12-10T21:53:43.463Z,1.86
2023-12-10T21:56:16.477Z,1.85
2023-12-10T21:58:49.361Z,1.84
2023-12-10T22:01:22.065Z,1.88
2023-12-10T22:03:54.581Z,1.89
2023-12-10T22:06:26.709Z,1.93
2023-12-10T22:08:59.261Z,1.88
2023-12-10T22:11:31.564Z,1.86
2023-12-10T22:14:03.911Z,1.90
2023-12-10T22:16:37.203Z,1.92
2023-12-10T22:19:10.658Z,1.91
2023-12-10T22:21:42.987Z,1.93
2023-12-10T22:24:15.269Z,1.97
2023-12-10T22:26:47.288Z,2.01
2023-12-10T22:29:20.225Z,2.03
2023-12-10T22:31:53.416Z,2.02
2023-12-10T22:34:25.866Z,2.00
2023-12-10T22:36:58.306Z,2.01
2023-12-10T22:39:30.726Z,2.01
2023-12-10T22:42:04.726Z,2.02
2023-12-10T22:44:36.991Z,2.03
2023-12-10T22:47:09.355Z,2.05
2023-12-10T22:49:45.715Z,2.04
2023-12-10T22:52:19.096Z,2.05
2023-12-10T22:54:51.455Z,2.05
2023-12-10T22:57:23.869Z,2.05
2023-12-10T22:59:57.685Z,1.96
2023-12-10T23:02:30.508Z,1.98
2023-12-10T23:05:06.639Z,1.96
2023-12-10T23:07:39.855Z,1.99
2023-12-10T23:10:16.294Z,1.98
2023-12-10T23:13:03.524Z,2.01
2023-12-10T23:15:45.548Z,1.92
2023-12-10T23:18:17.750Z,1.90
2023-12-10T23:20:50.211Z,1.83
2023-12-10T23:23:23.072Z,1.88
2023-12-10T23:25:55.546Z,1.79
2023-12-10T23:28:37.543Z,1.77
2023-12-10T23:31:19.786Z,1.75
2023-12-10T23:33:55.221Z,1.74
2023-12-10T23:36:37.949Z,1.77
2023-12-10T23:39:11.818Z,1.76
2023-12-10T23:41:48.893Z,1.73
2023-12-10T23:44:22.678Z,1.73
2023-12-10T23:47:02.371Z,1.75
2023-12-10T23:49:35.536Z,1.78
2023-12-10T23:52:08.455Z,1.78
2023-12-10T23:54:43.213Z,1.80
2023-12-10T23:57:16.509Z,1.75
2023-12-10T23:59:48.572Z,1.72
